Shkoder, Albania
Current Conditions -  °F | °C
As of 2:00 AM on Saturday 25 Oct 2014 (Local Time) from LYPG Reporting Station
Few Clouds Few Clouds  
Wind Chill: 57°   Ceiling: Unl
Heat Index: 57°   Visibility: 6mi
Dew Point: 36°   Wind: 22mph
Humidity: 44%   Direction: 360°N
Pressure: 29.85"   Gusts: NA
Location:  42.07°N, 19.51°E
Report Text: LYPG 250000Z 36019KT 9999 FEW090 14/02 Q1011 NOSIG
Loading
Personal Weather Stations






























Interactive Weather Map
Tropical Storm Tracking
New forecast layout! Learn more

10-Day Weather Forecast

Advertisements
Track Severe Weather on mobile